createdAt,value
2023-02-22T00:02:24.447Z,94347.06
2023-02-22T00:07:25.725Z,94349.81
2023-02-22T00:12:27.004Z,94362.44
2023-02-22T00:17:28.252Z,94365.84
2023-02-22T00:22:29.549Z,94363.53
2023-02-22T00:27:30.824Z,94360.50
2023-02-22T00:32:32.105Z,94356.69
2023-02-22T00:37:33.365Z,94352.06
2023-02-22T00:42:34.752Z,94334.84
2023-02-22T00:47:36.038Z,94336.38
2023-02-22T00:52:37.366Z,94331.41
2023-02-22T00:57:38.632Z,94326.41
2023-02-22T01:02:39.980Z,94320.72
2023-02-22T01:07:41.476Z,94320.31
2023-02-22T01:12:42.786Z,94326.78
2023-02-22T01:17:44.109Z,94308.03
2023-02-22T01:22:45.427Z,94311.13
2023-02-22T01:27:46.702Z,94302.69
2023-02-22T01:32:47.959Z,94295.03
2023-02-22T01:37:49.256Z,94296.94
2023-02-22T01:42:50.568Z,94295.78
2023-02-22T01:47:51.874Z,94310.34
2023-02-22T01:52:53.154Z,94311.13
2023-02-22T01:57:54.409Z,94311.50
2023-02-22T02:02:55.668Z,94310.41
2023-02-22T02:07:56.962Z,94304.25
2023-02-22T02:12:58.227Z,94313.53
2023-02-22T02:17:59.611Z,94313.13
2023-02-22T02:23:00.940Z,94314.31
2023-02-22T02:28:02.234Z,94315.84
2023-02-22T02:33:03.534Z,94321.59
2023-02-22T02:38:04.803Z,94325.03
2023-02-22T02:43:06.060Z,94329.63
2023-02-22T02:48:07.357Z,94333.81
2023-02-22T02:53:08.649Z,94333.09
2023-02-22T02:58:09.917Z,94333.88
2023-02-22T03:03:11.188Z,94332.41
2023-02-22T03:08:12.502Z,94331.59
2023-02-22T03:13:13.840Z,94334.63
2023-02-22T03:18:15.176Z,94338.06
2023-02-22T03:23:16.496Z,94332.72
2023-02-22T03:28:17.796Z,94333.88
2023-02-22T03:33:19.067Z,94332.72
2023-02-22T03:38:20.335Z,94326.19
2023-02-22T03:43:21.605Z,94336.19
2023-02-22T03:48:22.896Z,94331.94
2023-02-22T03:53:24.252Z,94332.31
2023-02-22T03:58:25.526Z,94332.69
2023-02-22T04:03:26.802Z,94329.25
2023-02-22T04:08:28.086Z,94329.25
2023-02-22T04:13:29.371Z,94330.00
2023-02-22T04:18:30.669Z,94324.28
2023-02-22T04:23:31.953Z,94327.75
2023-02-22T04:28:33.208Z,94324.66
2023-02-22T04:33:34.510Z,94328.47
2023-02-22T04:38:35.825Z,94334.22
2023-02-22T04:43:37.136Z,94335.38
2023-02-22T04:48:38.401Z,94336.25
2023-02-22T04:53:39.712Z,94336.31
2023-02-22T04:58:41.008Z,94335.94
2023-02-22T05:03:42.363Z,94333.66
2023-02-22T05:08:43.598Z,94335.97
2023-02-22T05:13:44.938Z,94338.34
2023-02-22T05:18:46.339Z,94345.97
2023-02-22T05:23:47.698Z,94355.97
2023-02-22T05:28:49.019Z,94363.63
2023-02-22T05:33:50.344Z,94375.91
2023-02-22T05:38:51.610Z,94374.00
2023-02-22T05:43:52.950Z,94383.59
2023-02-22T05:48:54.210Z,94386.69
2023-02-22T05:53:55.548Z,94384.03
2023-02-22T05:58:56.850Z,94393.59
2023-02-22T06:03:58.149Z,94384.25
2023-02-22T06:08:59.498Z,94391.84
2023-02-22T06:14:00.809Z,94402.13
2023-02-22T06:19:02.131Z,94400.94
2023-02-22T06:24:03.431Z,94396.03
2023-02-22T06:29:04.720Z,94394.84
2023-02-22T06:34:06.002Z,94394.09
2023-02-22T06:39:07.356Z,94393.34
2023-02-22T06:44:08.648Z,94395.63
2023-02-22T06:49:09.953Z,94384.91
2023-02-22T06:54:11.350Z,94394.47
2023-02-22T06:59:12.647Z,94391.00
2023-02-22T07:04:13.961Z,94400.19
2023-02-22T07:09:15.289Z,94400.22
2023-02-22T07:14:16.612Z,94392.59
2023-02-22T07:19:17.906Z,94399.91
2023-02-22T07:24:19.180Z,94409.13
2023-02-22T07:29:20.471Z,94398.03
2023-02-22T07:34:21.743Z,94398.03
2023-02-22T07:39:23.000Z,94401.84
2023-02-22T07:44:24.312Z,94399.94
2023-02-22T07:49:25.601Z,94387.34
2023-02-22T07:54:26.880Z,94386.19
2023-02-22T07:59:28.200Z,94379.34
2023-02-22T08:04:29.494Z,94386.63
2023-02-22T08:09:30.792Z,94380.50
2023-02-22T08:14:32.066Z,94376.28
2023-02-22T08:19:33.405Z,94375.88
2023-02-22T08:24:34.643Z,94373.56
2023-02-22T08:29:35.940Z,94378.19
2023-02-22T08:34:37.219Z,94369.41
2023-02-22T08:39:38.563Z,94375.91
2023-02-22T08:44:39.845Z,94375.50
2023-02-22T08:49:41.190Z,94370.13
2023-02-22T08:54:42.567Z,94363.22
2023-02-22T08:59:43.888Z,94362.03
2023-02-22T09:04:45.202Z,94362.78
2023-02-22T09:09:46.558Z,94360.84
2023-02-22T09:14:47.886Z,94355.84
2023-02-22T09:19:49.278Z,94353.53
2023-02-22T09:24:50.597Z,94353.53
2023-02-22T09:29:51.885Z,94353.91
2023-02-22T09:34:53.184Z,94347.38
2023-02-22T09:39:54.509Z,94340.09
2023-02-22T09:44:55.865Z,94341.25
2023-02-22T09:49:57.173Z,94343.50
2023-02-22T09:54:58.443Z,94335.06
2023-02-22T09:59:59.771Z,94329.66
2023-02-22T10:05:01.101Z,94320.09
2023-02-22T10:10:02.424Z,94313.56
2023-02-22T10:15:03.667Z,94313.16
2023-02-22T10:20:04.983Z,94299.00
2023-02-22T10:25:08.695Z,94291.72
2023-02-22T10:30:23.858Z,94284.84
2023-02-22T10:35:26.137Z,94276.44
2023-02-22T10:40:27.431Z,94270.31
2023-02-22T10:45:28.740Z,94253.44
2023-02-22T10:50:30.022Z,94256.50
2023-02-22T10:55:31.329Z,94248.47
2023-02-22T11:00:32.633Z,94241.94
2023-02-22T11:05:33.903Z,94246.91
2023-02-22T11:10:35.228Z,94237.72
2023-02-22T11:15:36.596Z,94226.66
2023-02-22T11:20:38.007Z,94218.19
2023-02-22T11:25:39.327Z,94215.53
2023-02-22T11:30:40.680Z,94208.63
2023-02-22T11:35:41.966Z,94199.41
2023-02-22T11:40:43.296Z,94199.81
2023-02-22T11:45:56.628Z,94189.06
2023-02-22T11:50:59.482Z,94187.94
2023-02-22T11:56:00.829Z,94180.63
2023-02-22T12:01:02.129Z,94175.28
2023-02-22T12:06:03.431Z,94177.19
2023-02-22T12:11:04.785Z,94166.84
2023-02-22T12:16:06.120Z,94161.50
2023-02-22T12:21:07.454Z,94163.78
2023-02-22T12:26:11.457Z,94152.69
2023-02-22T12:31:13.141Z,94148.06
2023-02-22T12:36:14.663Z,94146.91
2023-02-22T12:41:16.263Z,94145.38
2023-02-22T12:46:17.680Z,94145.34
2023-02-22T12:51:19.172Z,94136.94
2023-02-22T12:56:20.597Z,94130.41
2023-02-22T13:01:22.120Z,94127.34
2023-02-22T13:06:23.475Z,94131.53
2023-02-22T13:11:24.801Z,94130.78
2023-02-22T13:16:26.177Z,94121.19
2023-02-22T13:21:27.440Z,94120.44
2023-02-22T13:26:28.763Z,94120.41
2023-02-22T13:31:30.246Z,94121.56
2023-02-22T13:36:31.733Z,94111.22
2023-02-22T13:41:33.010Z,94116.94
2023-02-22T13:46:34.403Z,94113.50
2023-02-22T13:51:35.836Z,94105.84
2023-02-22T13:56:37.103Z,94107.38
2023-02-22T14:01:38.480Z,94107.75
2023-02-22T14:06:39.796Z,94099.72
2023-02-22T14:11:41.182Z,94108.13
2023-02-22T14:16:42.490Z,94108.50
2023-02-22T14:21:43.821Z,94107.72
2023-02-22T14:26:45.129Z,94105.44
2023-02-22T14:31:46.706Z,94112.69
2023-02-22T14:36:48.018Z,94106.94
2023-02-22T14:41:49.307Z,94103.94
2023-02-22T14:46:50.689Z,94106.19
2023-02-22T14:51:52.005Z,94104.25
2023-02-22T14:56:53.298Z,94106.16
2023-02-22T15:02:06.021Z,94100.41
2023-02-22T15:07:12.628Z,94103.09
2023-02-22T15:12:14.413Z,94101.19
2023-02-22T15:17:15.733Z,94108.41
2023-02-22T15:22:17.026Z,94101.91
2023-02-22T15:27:18.317Z,94101.91
2023-02-22T15:32:19.790Z,94105.75
2023-02-22T15:37:21.184Z,94108.78
2023-02-22T15:42:22.477Z,94110.31
2023-02-22T15:47:23.776Z,94109.53
2023-02-22T15:52:25.097Z,94113.34
2023-02-22T15:57:26.420Z,94114.88
2023-02-22T16:02:27.827Z,94118.66
2023-02-22T16:07:29.142Z,94123.63
2023-02-22T16:12:30.412Z,94122.88
2023-02-22T16:17:31.731Z,94133.94
2023-02-22T16:22:33.079Z,94142.31
2023-02-22T16:27:34.408Z,94140.78
2023-02-22T16:32:35.816Z,94144.19
2023-02-22T16:37:37.271Z,94144.19
2023-02-22T16:42:38.594Z,94150.31
2023-02-22T16:47:39.879Z,94154.50
2023-02-22T16:52:41.195Z,94156.00
2023-02-22T16:57:42.475Z,94163.72
2023-02-22T17:02:43.760Z,94165.25
2023-02-22T17:07:45.161Z,94168.34
2023-02-22T17:12:46.398Z,94179.41
2023-02-22T17:17:47.728Z,94179.06
2023-02-22T17:22:49.046Z,94179.06
2023-02-22T17:27:50.334Z,94180.94
2023-02-22T17:32:51.650Z,94185.16
2023-02-22T17:37:52.901Z,94186.28
2023-02-22T17:42:54.228Z,94188.22
2023-02-22T17:47:55.496Z,94185.94
2023-02-22T17:52:56.802Z,94186.34
2023-02-22T17:57:58.059Z,94176.81
2023-02-22T18:02:59.406Z,94177.97
2023-02-22T18:08:00.796Z,94171.47
2023-02-22T18:13:02.179Z,94174.91
2023-02-22T18:18:03.448Z,94180.25
2023-02-22T18:23:04.731Z,94178.31
2023-02-22T18:28:06.034Z,94177.97
2023-02-22T18:33:07.306Z,94184.81
2023-02-22T18:38:09.631Z,94183.66
2023-02-22T18:43:11.818Z,94184.00
2023-02-22T18:48:13.096Z,94184.78
2023-02-22T18:53:14.484Z,94185.56
2023-02-22T18:58:15.892Z,94188.22
2023-02-22T19:03:17.150Z,94186.31
2023-02-22T19:08:18.453Z,94186.66
2023-02-22T19:13:19.779Z,94197.38
2023-02-22T19:18:21.156Z,94203.41
2023-02-22T19:23:22.463Z,94201.91
2023-02-22T19:28:23.801Z,94205.69
2023-02-22T19:33:25.050Z,94212.19
2023-02-22T19:38:26.306Z,94214.53
2023-02-22T19:43:27.562Z,94214.13
2023-02-22T19:48:28.819Z,94218.69
2023-02-22T19:53:30.138Z,94214.88
2023-02-22T19:58:31.495Z,94222.13
2023-02-22T20:03:32.877Z,94223.28
2023-02-22T20:08:34.182Z,94226.69
2023-02-22T20:13:35.476Z,94234.31
2023-02-22T20:18:36.813Z,94236.22
2023-02-22T20:23:38.076Z,94231.63
2023-02-22T20:28:39.368Z,94241.94
2023-02-22T20:33:42.163Z,94234.00
2023-02-22T20:38:43.522Z,94231.03
2023-02-22T20:43:44.804Z,94233.88
2023-02-22T20:48:46.199Z,94237.00
2023-02-22T20:53:47.467Z,94235.97
2023-02-22T20:58:48.758Z,94232.16
2023-02-22T21:03:50.042Z,94232.25
2023-02-22T21:08:51.456Z,94233.34
2023-02-22T21:13:52.780Z,94225.34
2023-02-22T21:18:54.097Z,94225.41
2023-02-22T21:23:55.425Z,94228.47
2023-02-22T21:28:56.662Z,94232.69
2023-02-22T21:33:57.932Z,94228.88
2023-02-22T21:38:59.217Z,94223.91
2023-02-22T21:44:00.496Z,94227.38
2023-02-22T21:49:01.801Z,94226.97
2023-02-22T21:54:03.180Z,94223.19
2023-02-22T21:59:04.491Z,94219.72
2023-02-22T22:04:05.810Z,94225.47
2023-02-22T22:09:07.093Z,94228.13
2023-02-22T22:14:08.342Z,94231.56
2023-02-22T22:19:09.604Z,94230.41
2023-02-22T22:24:10.923Z,94239.97
2023-02-22T22:29:12.224Z,94239.22
2023-02-22T22:34:13.589Z,94240.38
2023-02-22T22:39:14.999Z,94235.41
2023-02-22T22:44:16.347Z,94239.28
2023-02-22T22:49:17.624Z,94231.22
2023-02-22T22:54:18.931Z,94235.03
2023-02-22T22:59:20.287Z,94232.34
2023-02-22T23:04:21.540Z,94233.13
2023-02-22T23:09:22.825Z,94227.38
2023-02-22T23:14:24.308Z,94226.22
2023-02-22T23:19:25.592Z,94227.38
2023-02-22T23:24:26.831Z,94233.13
2023-02-22T23:29:28.102Z,94235.44
2023-02-22T23:34:29.397Z,94232.34
2023-02-22T23:39:30.703Z,94235.03
2023-02-22T23:44:32.005Z,94227.38
2023-02-22T23:49:33.292Z,94240.03
2023-02-22T23:54:34.595Z,94227.75
2023-02-22T23:59:35.988Z,94219.72
